Time;durP1;ratioP1;P1;durP2;ratioP2;P2;SDS_P1;SDS_P2;PMS_P1;PMS_P2;Temp;Humidity;BMP_temperature;BMP_pressure;BME280_temperature;BME280_humidity;BME280_pressure;Samples;Min_cycle;Max_cycle;Signal;HPM_P1;HPM_P2
2023/09/23 00:01:21;;;;;;;0.30;0.30;;;13.50;99.90;;;;;;5095587;28;20090;-73
2023/09/23 00:03:48;;;;;;;0.30;0.30;;;13.50;99.90;;;;;;5095813;28;20043;-74
2023/09/23 00:06:14;;;;;;;;;;;13.50;99.90;;;;;;5096129;28;20044;-74
2023/09/23 00:08:39;;;;;;;0.30;0.30;;;13.50;99.90;;;;;;5095948;28;19923;-74
2023/09/23 00:11:08;;;;;;;0.40;0.40;;;13.50;99.90;;;;;;5095668;28;20091;-73
2023/09/23 00:13:35;;;;;;;0.40;0.40;;;13.40;99.90;;;;;;5095573;28;20032;-76
2023/09/23 00:16:14;;;;;;;0.65;0.60;;;13.50;99.90;;;;;;5094222;28;20040;-74
2023/09/23 00:18:40;;;;;;;0.30;0.30;;;13.40;99.90;;;;;;5095236;28;20096;-75
2023/09/23 00:21:08;;;;;;;0.30;0.30;;;13.40;99.90;;;;;;5095487;28;20410;-75
2023/09/23 00:23:34;;;;;;;0.45;0.45;;;13.40;99.90;;;;;;5095345;28;20294;-74
2023/09/23 00:26:03;;;;;;;0.47;0.47;;;13.40;99.90;;;;;;5094800;28;20040;-74
2023/09/23 00:28:30;;;;;;;0.45;0.45;;;13.30;99.90;;;;;;5094784;28;20044;-73
2023/09/23 00:31:11;;;;;;;0.40;0.40;;;13.30;99.90;;;;;;5095244;28;20050;-74
2023/09/23 00:33:37;;;;;;;0.40;0.40;;;13.30;99.90;;;;;;5095184;28;20371;-73
2023/09/23 00:36:05;;;;;;;0.45;0.45;;;13.30;99.90;;;;;;5095186;28;20040;-74
2023/09/23 00:38:32;;;;;;;0.40;0.40;;;13.30;99.90;;;;;;5095113;28;20166;-74
2023/09/23 00:40:57;;;;;;;;;;;13.30;99.90;;;;;;5095476;28;20479;-74
2023/09/23 00:43:23;;;;;;;0.32;0.32;;;13.30;99.90;;;;;;5094970;28;19923;-74
2023/09/23 00:45:52;;;;;;;0.50;0.50;;;13.20;99.90;;;;;;5094941;28;20089;-73
2023/09/23 00:48:20;;;;;;;0.40;0.40;;;13.20;99.90;;;;;;5094820;28;20043;-74
2023/09/23 00:50:47;;;;;;;0.40;0.40;;;13.20;99.90;;;;;;5094876;28;20044;-74
2023/09/23 00:53:13;;;;;;;0.30;0.30;;;13.20;99.90;;;;;;5094888;28;20062;-75
2023/09/23 00:55:43;;;;;;;0.40;0.40;;;13.20;99.90;;;;;;5094817;28;20032;-73
2023/09/23 00:58:19;;;;;;;0.30;0.30;;;13.10;99.90;;;;;;5094736;28;20051;-74
2023/09/23 01:00:46;;;;;;;0.30;0.30;;;13.10;99.90;;;;;;5094712;28;20051;-74
2023/09/23 01:03:12;;;;;;;0.38;0.38;;;13.10;99.90;;;;;;5094369;28;20036;-74
2023/09/23 01:05:41;;;;;;;0.37;0.37;;;13.10;99.90;;;;;;5094393;28;20044;-74
2023/09/23 01:08:18;;;;;;;0.45;0.45;;;13.10;99.90;;;;;;5094351;28;20042;-74
2023/09/23 01:10:44;;;;;;;0.50;0.50;;;13.10;99.90;;;;;;5094488;28;20464;-74
2023/09/23 01:13:19;;;;;;;0.40;0.40;;;13.10;99.90;;;;;;5094435;28;20036;-73
2023/09/23 01:15:46;;;;;;;0.50;0.50;;;13.10;99.90;;;;;;5094762;28;20044;-74
2023/09/23 01:18:13;;;;;;;0.40;0.40;;;13.10;99.90;;;;;;5094139;28;20456;-74
2023/09/23 01:20:41;;;;;;;;;;;13.10;99.90;;;;;;5094872;28;20052;-74
2023/09/23 01:23:09;;;;;;;0.50;0.50;;;13.00;99.90;;;;;;5094227;28;19920;-74
2023/09/23 01:25:36;;;;;;;0.30;0.30;;;12.90;99.90;;;;;;5094276;28;20071;-74
2023/09/23 01:28:12;;;;;;;0.40;0.40;;;13.00;99.90;;;;;;5094629;28;20048;-74
2023/09/23 01:30:43;;;;;;;0.40;0.40;;;13.00;99.90;;;;;;5094228;28;20479;-74
2023/09/23 01:33:10;;;;;;;0.50;0.50;;;13.00;99.90;;;;;;5094616;28;20119;-74
2023/09/23 01:35:36;;;;;;;0.60;0.60;;;12.90;99.90;;;;;;5094124;28;20040;-74
2023/09/23 01:38:03;;;;;;;0.47;0.43;;;13.10;99.90;;;;;;5093721;28;20067;-73
2023/09/23 01:40:33;;;;;;;0.40;0.40;;;12.90;99.90;;;;;;5094470;28;20067;-74
2023/09/23 01:42:59;;;;;;;0.45;0.45;;;12.80;99.90;;;;;;5094354;28;20040;-74
2023/09/23 01:45:25;;;;;;;0.50;0.50;;;12.80;99.90;;;;;;5094020;28;20387;-74
2023/09/23 01:47:52;;;;;;;1.27;0.53;;;12.70;99.90;;;;;;5094167;28;20040;-74
2023/09/23 01:50:19;;;;;;;0.30;0.30;;;12.70;99.90;;;;;;5093892;28;20044;-74
2023/09/23 01:52:45;;;;;;;0.52;0.50;;;12.70;99.90;;;;;;5093838;28;20040;-74
2023/09/23 01:55:12;;;;;;;0.32;0.32;;;12.70;99.90;;;;;;5093893;28;20047;-74
2023/09/23 01:57:40;;;;;;;0.35;0.35;;;12.60;99.90;;;;;;5093047;28;20036;-74
2023/09/23 02:00:10;;;;;;;0.40;0.40;;;12.60;99.90;;;;;;5093786;28;20122;-73
2023/09/23 02:02:35;;;;;;;0.30;0.30;;;12.60;99.90;;;;;;5093613;28;20540;-74
2023/09/23 02:05:01;;;;;;;0.50;0.50;;;12.60;99.90;;;;;;5093795;28;20044;-73
2023/09/23 02:07:27;;;;;;;0.40;0.40;;;12.50;99.90;;;;;;5093676;28;20058;-73
2023/09/23 02:09:53;;;;;;;0.50;0.50;;;12.60;99.90;;;;;;5093912;28;20557;-75
2023/09/23 02:12:18;;;;;;;0.40;0.40;;;12.60;99.90;;;;;;5094038;28;20051;-74
2023/09/23 02:14:44;;;;;;;0.40;0.40;;;12.50;99.90;;;;;;5093639;28;20079;-75
2023/09/23 02:17:10;;;;;;;0.40;0.40;;;12.50;99.90;;;;;;5093591;28;20044;-74
2023/09/23 02:19:35;;;;;;;0.50;0.50;;;12.50;99.90;;;;;;5093596;28;20047;-74
2023/09/23 02:22:05;;;;;;;1.02;0.75;;;12.60;99.90;;;;;;5093475;28;20036;-75
2023/09/23 02:24:32;;;;;;;0.43;0.43;;;12.50;99.90;;;;;;5093339;28;20395;-75
2023/09/23 02:26:58;;;;;;;0.50;0.50;;;12.50;99.90;;;;;;5093518;28;20119;-74
2023/09/23 02:29:23;;;;;;;0.40;0.40;;;12.50;99.90;;;;;;5093590;28;20444;-74
2023/09/23 02:31:50;;;;;;;0.40;0.40;;;12.50;99.90;;;;;;5093503;28;20502;-74
2023/09/23 02:34:19;;;;;;;0.30;0.30;;;12.50;99.90;;;;;;5093499;28;20079;-75
2023/09/23 02:36:51;;;;;;;0.60;0.60;;;12.50;99.90;;;;;;5093376;28;20050;-74
2023/09/23 02:39:19;;;;;;;0.40;0.40;;;12.50;99.90;;;;;;5093457;28;20486;-75
2023/09/23 02:41:49;;;;;;;0.40;0.40;;;12.50;99.90;;;;;;5093276;28;20040;-75
2023/09/23 02:44:20;;;;;;;0.50;0.50;;;12.50;99.90;;;;;;5093310;28;20040;-75
2023/09/23 02:46:54;;;;;;;0.40;0.40;;;12.50;99.90;;;;;;5093339;28;20040;-75
2023/09/23 02:49:20;;;;;;;0.40;0.40;;;12.50;99.90;;;;;;5093288;28;20305;-75
2023/09/23 02:51:46;;;;;;;0.40;0.40;;;12.50;99.90;;;;;;5096970;28;20123;-74
2023/09/23 02:54:18;;;;;;;0.50;0.50;;;12.40;99.90;;;;;;5097128;28;20104;-73
2023/09/23 02:56:48;;;;;;;0.40;0.40;;;12.40;99.90;;;;;;5097213;28;20051;-75
2023/09/23 02:59:15;;;;;;;0.43;0.43;;;12.40;99.90;;;;;;5097044;28;20055;-75
2023/09/23 03:01:45;;;;;;;0.50;0.50;;;12.40;99.90;;;;;;5097035;28;20128;-74
2023/09/23 03:04:23;;;;;;;0.40;0.40;;;12.30;99.90;;;;;;5097386;28;20047;-74
2023/09/23 03:07:00;;;;;;;0.57;0.57;;;12.30;99.90;;;;;;5097009;28;20032;-74
2023/09/23 03:09:31;;;;;;;0.40;0.40;;;12.30;99.90;;;;;;5096621;28;20480;-74
2023/09/23 03:11:59;;;;;;;0.38;0.38;;;12.20;99.90;;;;;;5096796;28;20467;-74
2023/09/23 03:14:36;;;;;;;0.68;0.68;;;12.20;99.90;;;;;;5096780;28;20047;-74
2023/09/23 03:17:07;;;;;;;0.50;0.50;;;12.10;99.90;;;;;;5096798;28;20052;-74
2023/09/23 03:19:33;;;;;;;0.40;0.40;;;12.10;99.90;;;;;;5096699;28;20282;-74
2023/09/23 03:22:00;;;;;;;0.53;0.53;;;12.10;99.90;;;;;;5095501;28;20039;-74
2023/09/23 03:24:26;;;;;;;;;;;12.00;99.90;;;;;;5096997;28;20070;-75
2023/09/23 03:26:53;;;;;;;0.85;0.60;;;12.00;99.90;;;;;;5096485;28;19916;-75
2023/09/23 03:29:20;;;;;;;0.50;0.50;;;11.90;99.90;;;;;;5096880;28;20044;-75
2023/09/23 03:31:45;;;;;;;0.77;0.77;;;11.90;99.90;;;;;;5096461;28;20079;-74
2023/09/23 03:34:14;;;;;;;0.50;0.50;;;11.80;99.90;;;;;;5095434;28;20090;-75
2023/09/23 03:36:40;;;;;;;0.50;0.50;;;11.80;99.90;;;;;;5096279;28;20039;-74
2023/09/23 03:39:06;;;;;;;0.50;0.50;;;12.00;99.90;;;;;;5096232;28;20044;-74
2023/09/23 03:41:33;;;;;;;0.43;0.43;;;11.70;99.90;;;;;;5095969;28;20124;-75
2023/09/23 03:43:59;;;;;;;0.50;0.50;;;11.70;99.90;;;;;;5095897;28;20495;-74
2023/09/23 03:46:25;;;;;;;0.50;0.50;;;11.60;99.90;;;;;;5096239;28;20051;-74
2023/09/23 03:48:50;;;;;;;0.50;0.50;;;11.60;99.90;;;;;;5096087;28;20512;-74
2023/09/23 03:51:17;;;;;;;0.60;0.60;;;11.50;99.90;;;;;;5096065;28;20032;-74
2023/09/23 03:53:43;;;;;;;;;;;11.50;99.90;;;;;;5096461;28;20051;-74
2023/09/23 03:56:10;;;;;;;0.68;0.68;;;11.50;99.90;;;;;;5095868;28;19998;-74
2023/09/23 03:58:38;;;;;;;1.15;0.80;;;12.10;99.90;;;;;;5095973;28;20051;-75
2023/09/23 04:01:13;;;;;;;0.85;0.80;;;11.50;99.90;;;;;;5095551;28;20466;-75
2023/09/23 04:03:39;;;;;;;0.73;0.70;;;11.40;99.90;;;;;;5096020;28;20464;-74
2023/09/23 04:06:05;;;;;;;0.60;0.60;;;11.90;99.90;;;;;;5095879;28;20040;-75
2023/09/23 04:08:31;;;;;;;0.50;0.50;;;11.40;99.90;;;;;;5095708;28;20554;-74
2023/09/23 04:11:01;;;;;;;0.60;0.60;;;11.30;99.90;;;;;;5095531;28;20428;-75
2023/09/23 04:13:27;;;;;;;0.60;0.60;;;11.30;99.90;;;;;;5096286;28;20383;-74
2023/09/23 04:16:00;;;;;;;0.50;0.50;;;11.30;99.90;;;;;;5095590;28;20032;-74
2023/09/23 04:18:26;;;;;;;0.50;0.50;;;11.20;99.90;;;;;;5095942;28;20490;-75
2023/09/23 04:20:53;;;;;;;0.70;0.70;;;11.20;99.90;;;;;;5095499;28;20048;-74
2023/09/23 04:23:19;;;;;;;;;;;11.20;99.90;;;;;;5095419;28;20532;-74
2023/09/23 04:25:44;;;;;;;0.80;0.80;;;11.20;99.90;;;;;;5095780;28;19920;-74
2023/09/23 04:28:10;;;;;;;0.50;0.50;;;11.20;99.90;;;;;;5095313;28;20486;-74
2023/09/23 04:30:36;;;;;;;0.65;0.65;;;11.10;99.90;;;;;;5095562;28;20040;-74
2023/09/23 04:33:02;;;;;;;0.63;0.63;;;11.60;99.90;;;;;;5095224;28;20628;-74
2023/09/23 04:35:31;;;;;;;0.77;0.75;;;11.10;99.90;;;;;;5095255;28;20048;-73
2023/09/23 04:37:56;;;;;;;0.77;0.77;;;11.10;99.90;;;;;;5095078;28;20032;-74
2023/09/23 04:40:22;;;;;;;0.50;0.50;;;11.10;99.90;;;;;;5095243;28;20039;-74
2023/09/23 04:42:48;;;;;;;0.50;0.50;;;11.00;99.90;;;;;;5094841;28;20043;-74
2023/09/23 04:45:14;;;;;;;1.10;0.73;;;11.00;99.90;;;;;;5093867;28;20035;-74
2023/09/23 04:47:40;;;;;;;0.80;0.60;;;11.00;99.90;;;;;;5094952;28;20387;-75
2023/09/23 04:50:12;;;;;;;1.10;0.88;;;11.00;99.90;;;;;;5094956;28;20097;-75
2023/09/23 04:52:38;;;;;;;1.13;0.95;;;11.00;99.90;;;;;;5094850;28;20085;-75
2023/09/23 04:55:04;;;;;;;0.80;0.80;;;11.00;99.90;;;;;;5095249;28;20048;-74
2023/09/23 04:57:31;;;;;;;0.50;0.50;;;10.90;99.90;;;;;;5095105;28;20044;-74
2023/09/23 04:59:56;;;;;;;1.15;1.05;;;10.90;99.90;;;;;;5094984;28;20273;-74
2023/09/23 05:02:22;;;;;;;0.60;0.60;;;10.90;99.90;;;;;;5094560;28;20472;-74
2023/09/23 05:04:53;;;;;;;0.57;0.57;;;10.90;99.90;;;;;;5094674;28;20075;-78
2023/09/23 05:07:19;;;;;;;0.50;0.50;;;10.90;99.90;;;;;;5094461;28;20042;-73
2023/09/23 05:09:45;;;;;;;0.70;0.70;;;11.00;99.90;;;;;;5094757;28;20052;-73
2023/09/23 05:12:11;;;;;;;0.70;0.70;;;10.90;99.90;;;;;;5094571;28;20417;-71
2023/09/23 05:14:37;;;;;;;0.65;0.65;;;10.90;99.90;;;;;;5094126;28;20123;-71
2023/09/23 05:17:04;;;;;;;0.70;0.70;;;10.90;99.90;;;;;;5094402;28;20036;-72
2023/09/23 05:19:31;;;;;;;0.75;0.75;;;11.90;99.90;;;;;;5094450;28;20044;-71
2023/09/23 05:21:57;;;;;;;;;;;10.90;99.90;;;;;;5094492;28;20089;-72
2023/09/23 05:24:26;;;;;;;0.82;0.82;;;11.00;99.90;;;;;;5094226;28;19959;-72
2023/09/23 05:26:55;;;;;;;0.85;0.80;;;11.00;99.90;;;;;;5094100;28;20136;-71
2023/09/23 05:29:23;;;;;;;0.60;0.60;;;11.00;99.90;;;;;;5094147;28;20464;-71
2023/09/23 05:31:49;;;;;;;1.30;0.90;;;11.10;99.90;;;;;;5092951;28;20040;-71
2023/09/23 05:34:16;;;;;;;0.70;0.70;;;11.10;99.90;;;;;;5092803;28;20101;-72
2023/09/23 05:36:42;;;;;;;1.75;1.13;;;11.10;99.90;;;;;;5092946;28;20058;-72
2023/09/23 05:39:08;;;;;;;1.03;0.87;;;11.30;99.90;;;;;;5094056;28;20047;-73
2023/09/23 05:41:33;;;;;;;1.35;0.95;;;11.20;99.90;;;;;;5092695;28;20048;-72
2023/09/23 05:43:59;;;;;;;0.65;0.65;;;11.20;99.90;;;;;;5093955;28;20075;-73
2023/09/23 05:46:27;;;;;;;1.48;1.02;;;11.30;99.90;;;;;;5094006;28;20422;-73
2023/09/23 05:48:53;;;;;;;0.70;0.70;;;11.30;99.90;;;;;;5094002;28;20058;-73
2023/09/23 05:51:19;;;;;;;1.27;0.90;;;11.50;99.90;;;;;;5093802;28;20127;-73
2023/09/23 05:53:45;;;;;;;0.70;0.70;;;11.30;99.90;;;;;;5094193;28;20383;-74
2023/09/23 05:56:11;;;;;;;1.40;0.85;;;11.40;99.90;;;;;;5094040;28;20123;-72
2023/09/23 05:58:37;;;;;;;0.95;0.88;;;11.40;99.90;;;;;;5093777;28;20032;-72
2023/09/23 06:01:03;;;;;;;1.13;0.93;;;11.40;99.90;;;;;;5093775;28;20381;-72
2023/09/23 06:03:29;;;;;;;0.85;0.85;;;11.50;99.90;;;;;;5093720;28;20054;-72
2023/09/23 06:05:55;;;;;;;1.10;0.82;;;11.50;99.90;;;;;;5093635;28;20036;-71
2023/09/23 06:08:21;;;;;;;1.27;1.15;;;11.50;99.90;;;;;;5093605;28;20039;-71
2023/09/23 06:10:47;;;;;;;0.80;0.80;;;11.60;99.90;;;;;;5093955;28;20047;-72
2023/09/23 06:13:13;;;;;;;0.95;0.88;;;11.60;99.90;;;;;;5093627;28;20406;-71
2023/09/23 06:15:39;;;;;;;0.80;0.80;;;11.60;99.90;;;;;;5092928;28;20036;-70
2023/09/23 06:18:06;;;;;;;1.30;1.10;;;11.70;99.90;;;;;;5093709;28;20101;-70
2023/09/23 06:20:33;;;;;;;1.63;1.35;;;11.70;99.90;;;;;;5093297;28;20036;-71
2023/09/23 06:22:59;;;;;;;;;;;11.80;99.90;;;;;;5094007;28;20376;-74
2023/09/23 06:25:25;;;;;;;0.70;0.70;;;11.80;99.90;;;;;;5097155;28;19923;-73
2023/09/23 06:27:50;;;;;;;1.30;1.13;;;11.70;99.90;;;;;;5097721;28;20040;-75
2023/09/23 06:30:18;;;;;;;2.30;1.45;;;11.80;99.90;;;;;;5097557;28;20058;-71
2023/09/23 06:32:44;;;;;;;0.50;0.50;;;11.90;99.90;;;;;;5097448;28;20044;-73
2023/09/23 06:35:11;;;;;;;0.98;0.90;;;11.90;99.90;;;;;;5097486;28;20048;-73
2023/09/23 06:37:37;;;;;;;1.13;0.80;;;11.90;99.90;;;;;;5097520;28;20036;-72
2023/09/23 06:40:03;;;;;;;1.40;1.30;;;12.00;99.90;;;;;;5097372;28;20059;-74
2023/09/23 06:42:29;;;;;;;2.15;1.58;;;12.00;99.90;;;;;;5097589;28;20446;-74
2023/09/23 06:44:55;;;;;;;0.60;0.60;;;12.10;99.90;;;;;;5097890;28;20067;-74
2023/09/23 06:47:21;;;;;;;1.40;1.30;;;12.10;99.90;;;;;;5095465;28;20047;-73
2023/09/23 06:49:46;;;;;;;2.15;1.08;;;12.10;99.90;;;;;;5096729;28;20044;-75
2023/09/23 06:52:12;;;;;;;1.55;1.13;;;12.20;99.90;;;;;;5097003;28;20127;-74
2023/09/23 06:54:38;;;;;;;1.17;1.08;;;12.20;99.90;;;;;;5096880;28;20400;-73
2023/09/23 06:57:03;;;;;;;1.48;0.85;;;12.20;99.90;;;;;;5096925;28;20036;-69
2023/09/23 06:59:29;;;;;;;3.30;1.58;;;12.20;99.90;;;;;;5112655;28;20055;-73
2023/09/23 07:01:55;;;;;;;0.75;0.75;;;12.40;99.90;;;;;;5096624;28;20036;-70
2023/09/23 07:04:21;;;;;;;4.15;0.75;;;12.40;99.90;;;;;;5096721;28;20036;-70
2023/09/23 07:06:46;;;;;;;0.88;0.88;;;12.40;99.90;;;;;;5096798;28;20063;-69
2023/09/23 07:09:12;;;;;;;0.80;0.80;;;12.50;99.90;;;;;;5096637;28;20181;-69
2023/09/23 07:11:38;;;;;;;0.60;0.60;;;12.60;99.90;;;;;;5096930;28;20427;-71
2023/09/23 07:14:05;;;;;;;1.13;0.90;;;12.60;99.90;;;;;;5096793;28;20059;-70
2023/09/23 07:16:32;;;;;;;1.83;1.67;;;12.60;99.90;;;;;;5096780;28;20111;-70
2023/09/23 07:18:57;;;;;;;1.25;1.15;;;12.60;99.90;;;;;;5096273;28;20445;-73
2023/09/23 07:21:23;;;;;;;2.40;1.77;;;12.70;99.90;;;;;;5096522;28;20048;-76
2023/09/23 07:23:48;;;;;;;0.95;0.93;;;12.70;99.90;;;;;;5096247;28;20127;-76
2023/09/23 07:26:21;;;;;;;1.63;1.52;;;12.70;99.90;;;;;;5096431;28;20040;-75
2023/09/23 07:28:47;;;;;;;0.77;0.77;;;12.80;99.90;;;;;;5096241;28;20131;-74
2023/09/23 07:31:12;;;;;;;1.43;1.10;;;12.80;99.90;;;;;;5096373;28;20161;-74
2023/09/23 07:33:38;;;;;;;1.58;1.30;;;12.80;99.90;;;;;;5095118;28;20063;-75
2023/09/23 07:36:12;;;;;;;1.17;0.95;;;12.90;99.90;;;;;;5095276;28;20044;-75
2023/09/23 07:38:38;;;;;;;1.90;1.40;;;12.90;99.90;;;;;;5096285;28;20075;-80
2023/09/23 07:41:04;;;;;;;1.73;1.20;;;13.00;99.90;;;;;;5095335;28;20135;-76
2023/09/23 07:43:29;;;;;;;1.80;1.20;;;13.00;99.90;;;;;;5095885;28;20111;-74
2023/09/23 07:45:55;;;;;;;1.58;1.48;;;13.10;99.90;;;;;;5096165;28;20054;-72
2023/09/23 07:48:20;;;;;;;1.27;1.17;;;13.10;99.90;;;;;;5095661;28;20100;-74
2023/09/23 07:50:46;;;;;;;0.73;0.73;;;13.20;99.90;;;;;;5095897;28;20039;-74
2023/09/23 07:53:12;;;;;;;0.93;0.93;;;13.20;99.90;;;;;;5096122;28;20047;-77
2023/09/23 07:55:38;;;;;;;2.13;1.23;;;13.30;99.90;;;;;;5096021;28;20040;-76
2023/09/23 07:58:04;;;;;;;2.88;1.98;;;13.30;99.90;;;;;;5096203;28;20062;-73
2023/09/23 08:00:29;;;;;;;1.10;1.05;;;13.40;99.90;;;;;;5094367;28;20484;-72
2023/09/23 08:02:55;;;;;;;0.95;0.88;;;13.50;99.90;;;;;;5095569;28;20036;-72
2023/09/23 08:05:23;;;;;;;0.88;0.88;;;13.60;99.90;;;;;;5095732;28;20047;-73
2023/09/23 08:07:51;;;;;;;0.80;0.80;;;13.70;99.90;;;;;;5095714;28;20472;-73
2023/09/23 08:10:17;;;;;;;1.20;1.10;;;13.80;99.90;;;;;;5094005;28;20056;-73
2023/09/23 08:12:46;;;;;;;1.15;0.88;;;13.90;99.90;;;;;;5095519;28;20048;-74
2023/09/23 08:15:11;;;;;;;1.17;0.82;;;14.00;99.90;;;;;;5095499;28;20034;-71
2023/09/23 08:17:41;;;;;;;1.83;1.67;;;14.00;99.90;;;;;;5095075;28;20097;-72
2023/09/23 08:20:17;;;;;;;1.65;1.42;;;14.10;99.90;;;;;;5095351;28;20036;-72
2023/09/23 08:22:53;;;;;;;4.97;1.50;;;14.20;99.90;;;;;;5095426;28;20039;-73
2023/09/23 08:25:19;;;;;;;0.88;0.88;;;14.30;99.90;;;;;;5095402;28;20460;-72
2023/09/23 08:27:45;;;;;;;0.80;0.63;;;14.40;99.90;;;;;;5095360;28;20089;-73
2023/09/23 08:30:11;;;;;;;0.63;0.63;;;14.40;99.90;;;;;;5093912;28;20040;-74
2023/09/23 08:32:38;;;;;;;2.17;0.85;;;14.50;99.90;;;;;;5095057;28;20134;-73
2023/09/23 08:35:05;;;;;;;2.08;1.00;;;14.60;99.90;;;;;;5093791;28;20078;-73
2023/09/23 08:37:31;;;;;;;0.82;0.80;;;14.70;99.90;;;;;;5093555;28;20046;-73
2023/09/23 08:39:57;;;;;;;1.33;1.05;;;14.70;99.90;;;;;;5093548;28;20433;-73
2023/09/23 08:42:24;;;;;;;1.38;1.27;;;14.70;99.90;;;;;;5094568;28;20043;-72
2023/09/23 08:44:51;;;;;;;0.82;0.75;;;14.60;99.90;;;;;;5094547;28;20043;-73
2023/09/23 08:47:20;;;;;;;1.37;1.27;;;14.70;99.90;;;;;;5094323;28;20068;-73
2023/09/23 08:49:50;;;;;;;1.85;1.23;;;14.80;99.90;;;;;;5094497;28;20077;-73
2023/09/23 08:52:19;;;;;;;0.60;0.60;;;14.90;99.90;;;;;;5094996;28;20048;-73
2023/09/23 08:54:49;;;;;;;1.20;1.00;;;14.90;99.90;;;;;;5094698;28;20036;-73
2023/09/23 08:57:19;;;;;;;0.60;0.60;;;14.90;99.90;;;;;;5094568;28;20119;-73
2023/09/23 08:59:45;;;;;;;0.98;0.70;;;14.80;99.90;;;;;;5094534;28;20043;-72
2023/09/23 09:02:16;;;;;;;0.50;0.50;;;14.90;99.90;;;;;;5094151;28;20043;-71
2023/09/23 09:04:42;;;;;;;0.80;0.65;;;15.00;99.90;;;;;;5093332;28;20067;-72
2023/09/23 09:07:08;;;;;;;2.17;0.97;;;15.00;99.90;;;;;;5094633;28;20452;-72
2023/09/23 09:09:40;;;;;;;1.75;0.50;;;15.00;99.90;;;;;;5111251;27;20944;-73
2023/09/23 09:12:06;;;;;;;0.60;0.60;;;15.10;99.90;;;;;;5110052;28;20051;-72
2023/09/23 09:14:33;;;;;;;0.97;0.57;;;15.00;99.90;;;;;;5111249;28;20070;-72
2023/09/23 09:16:58;;;;;;;;;;;15.10;99.90;;;;;;5111583;28;20046;-73
2023/09/23 09:19:24;;;;;;;1.15;1.05;;;15.10;99.90;;;;;;5110721;28;19915;-73
2023/09/23 09:21:50;;;;;;;1.23;0.93;;;15.10;99.90;;;;;;5111219;28;20464;-75
2023/09/23 09:24:16;;;;;;;0.75;0.73;;;15.10;99.90;;;;;;5110798;28;20122;-75
2023/09/23 09:26:44;;;;;;;1.08;0.98;;;15.10;99.90;;;;;;5110816;28;20444;-72
2023/09/23 09:29:10;;;;;;;2.58;0.73;;;15.10;99.90;;;;;;5111029;28;20048;-72
2023/09/23 09:31:38;;;;;;;0.90;0.80;;;15.20;99.90;;;;;;5111112;28;20101;-73
2023/09/23 09:34:11;;;;;;;2.05;1.25;;;15.20;99.90;;;;;;5110761;28;20051;-74
2023/09/23 09:36:38;;;;;;;0.80;0.80;;;15.10;99.90;;;;;;5111094;28;20066;-76
2023/09/23 09:39:06;;;;;;;1.33;0.88;;;15.20;99.90;;;;;;5110797;28;20112;-73
2023/09/23 09:41:53;;;;;;;1.05;0.95;;;15.30;99.90;;;;;;5110470;28;20502;-72
2023/09/23 09:44:21;;;;;;;1.05;0.93;;;15.40;99.90;;;;;;5110761;28;20367;-73
2023/09/23 09:46:48;;;;;;;2.42;0.98;;;15.40;99.90;;;;;;5107409;28;20043;-73
2023/09/23 09:49:17;;;;;;;1.20;0.90;;;15.50;99.90;;;;;;5107324;28;20597;-72
2023/09/23 09:51:48;;;;;;;0.70;0.68;;;15.50;99.90;;;;;;5097766;28;20040;-75
2023/09/23 09:54:18;;;;;;;0.50;0.50;;;15.60;99.90;;;;;;5109972;28;20035;-77
2023/09/23 09:56:47;;;;;;;0.50;0.50;;;15.80;99.90;;;;;;5109013;28;20044;-77
2023/09/23 09:59:27;;;;;;;0.60;0.60;;;15.90;99.90;;;;;;5106229;28;20383;-76
2023/09/23 10:01:56;;;;;;;0.55;0.52;;;15.90;99.90;;;;;;5109347;28;20428;-78
2023/09/23 10:04:22;;;;;;;0.95;0.82;;;15.90;99.90;;;;;;5110049;28;20036;-79
2023/09/23 10:06:55;;;;;;;0.77;0.70;;;16.00;99.90;;;;;;5110663;28;20046;-76
2023/09/23 10:09:31;;;;;;;0.68;0.68;;;16.00;99.90;;;;;;5109693;28;20072;-76
2023/09/23 10:11:58;;;;;;;0.60;0.60;;;16.10;99.90;;;;;;5110339;28;20048;-84
2023/09/23 10:14:26;;;;;;;3.15;1.20;;;16.20;99.90;;;;;;5110059;28;20058;-78
2023/09/23 10:17:03;;;;;;;0.98;0.70;;;16.20;99.90;;;;;;5108766;28;20076;-73
2023/09/23 10:19:32;;;;;;;0.77;0.57;;;16.40;99.90;;;;;;5104468;28;20076;-75
2023/09/23 10:22:18;;;;;;;0.88;0.88;;;16.50;99.90;;;;;;5095974;28;20076;-72
2023/09/23 10:24:44;;;;;;;0.40;0.40;;;16.60;99.90;;;;;;5096070;28;20440;-71
2023/09/23 10:27:10;;;;;;;0.40;0.40;;;16.80;99.90;;;;;;5095091;28;20043;-74
2023/09/23 10:29:45;;;;;;;0.65;0.60;;;16.90;99.90;;;;;;5096296;28;20047;-74
2023/09/23 10:32:15;;;;;;;0.50;0.50;;;17.00;99.90;;;;;;5077906;28;20089;-81
2023/09/23 10:34:52;;;;;;;0.77;0.68;;;17.00;99.90;;;;;;5096309;28;20043;-80
2023/09/23 10:37:31;;;;;;;;;;;17.10;99.90;;;;;;5078463;28;20028;-77
2023/09/23 10:40:12;;;;;;;0.40;0.40;;;17.20;99.90;;;;;;5093823;28;19923;-74
2023/09/23 10:42:40;;;;;;;0.60;0.50;;;17.10;99.90;;;;;;5096142;28;20043;-74
2023/09/23 10:45:07;;;;;;;0.38;0.38;;;17.00;99.90;;;;;;5095908;28;20094;-71
2023/09/23 10:47:35;;;;;;;0.40;0.40;;;16.90;99.90;;;;;;5095343;28;20043;-74
2023/09/23 10:50:03;;;;;;;0.52;0.52;;;17.00;99.90;;;;;;5095759;28;20038;-72
2023/09/23 10:52:29;;;;;;;0.55;0.55;;;16.90;99.90;;;;;;5096074;28;20428;-73
2023/09/23 10:54:55;;;;;;;0.40;0.40;;;16.80;99.90;;;;;;5096023;28;20078;-76
2023/09/23 10:57:20;;;;;;;0.53;0.53;;;16.70;99.90;;;;;;5095804;28;20042;-78
2023/09/23 10:59:47;;;;;;;0.83;0.83;;;16.60;99.90;;;;;;5094303;28;20055;-73
2023/09/23 11:02:13;;;;;;;0.63;0.63;;;16.50;99.90;;;;;;5094082;28;20440;-74
2023/09/23 11:04:39;;;;;;;0.40;0.40;;;16.40;99.90;;;;;;5095185;28;20403;-73
2023/09/23 11:07:06;;;;;;;0.70;0.60;;;16.50;99.90;;;;;;5095554;28;20119;-78
2023/09/23 11:09:32;;;;;;;0.70;0.63;;;16.50;99.90;;;;;;5095800;28;20092;-77
2023/09/23 11:12:07;;;;;;;0.50;0.50;;;16.40;99.90;;;;;;5095209;28;20078;-77
2023/09/23 11:14:32;;;;;;;0.50;0.50;;;16.40;99.90;;;;;;5094232;28;20051;-79
2023/09/23 11:17:00;;;;;;;0.43;0.40;;;16.40;99.90;;;;;;5088120;28;20041;-80
2023/09/23 11:19:26;;;;;;;0.50;0.50;;;16.40;99.90;;;;;;5072955;28;20036;-77
2023/09/23 11:21:51;;;;;;;0.40;0.40;;;16.40;99.90;;;;;;5072791;28;20533;-71
2023/09/23 11:24:18;;;;;;;0.30;0.30;;;16.50;99.90;;;;;;5073404;28;20131;-73
2023/09/23 11:26:45;;;;;;;0.40;0.40;;;16.80;99.90;;;;;;5074827;28;20115;-74
2023/09/23 11:29:11;;;;;;;0.77;0.60;;;16.90;99.90;;;;;;5073674;28;20040;-74
2023/09/23 11:31:37;;;;;;;0.20;0.20;;;17.20;99.90;;;;;;5073450;28;20167;-74
2023/09/23 11:34:03;;;;;;;0.40;0.40;;;17.40;99.90;;;;;;5073757;28;20135;-74
2023/09/23 11:36:28;;;;;;;1.90;0.50;;;17.50;99.90;;;;;;5073721;28;20040;-75
2023/09/23 11:38:54;;;;;;;0.40;0.40;;;17.70;99.90;;;;;;5073982;28;20047;-74
2023/09/23 11:41:20;;;;;;;0.67;0.63;;;17.80;99.90;;;;;;5074735;28;20098;-74
2023/09/23 11:43:49;;;;;;;0.40;0.40;;;17.90;99.90;;;;;;5074704;28;20451;-74
2023/09/23 11:46:19;;;;;;;0.30;0.30;;;18.00;99.90;;;;;;5074757;28;20040;-74
2023/09/23 11:48:48;;;;;;;0.50;0.45;;;18.00;99.90;;;;;;5074275;28;20036;-75
2023/09/23 11:51:15;;;;;;;0.40;0.40;;;17.90;99.90;;;;;;5075066;28;20372;-75
2023/09/23 11:53:41;;;;;;;0.30;0.30;;;17.80;99.90;;;;;;5074720;28;20044;-74
2023/09/23 11:56:06;;;;;;;0.30;0.30;;;17.60;99.90;;;;;;5074442;28;20119;-74
2023/09/23 11:58:32;;;;;;;0.43;0.43;;;17.50;99.90;;;;;;5074483;28;20040;-75
2023/09/23 12:00:58;;;;;;;0.53;0.53;;;17.30;99.90;;;;;;5074433;28;20071;-75
2023/09/23 12:03:25;;;;;;;0.40;0.40;;;17.20;99.90;;;;;;5074454;28;20087;-74
2023/09/23 12:05:51;;;;;;;0.40;0.40;;;17.10;99.90;;;;;;5074383;28;20392;-74
2023/09/23 12:08:17;;;;;;;0.50;0.40;;;17.00;99.90;;;;;;5074584;28;20029;-74
2023/09/23 12:10:42;;;;;;;0.30;0.30;;;17.10;99.90;;;;;;5074517;28;20044;-74
2023/09/23 12:13:08;;;;;;;0.37;0.37;;;17.10;99.90;;;;;;5074207;28;20069;-74
2023/09/23 12:15:34;;;;;;;0.43;0.43;;;17.20;99.90;;;;;;5074151;28;20052;-74
2023/09/23 12:17:59;;;;;;;0.40;0.40;;;17.40;99.90;;;;;;5073061;28;20464;-74
2023/09/23 12:20:26;;;;;;;0.40;0.40;;;17.50;99.90;;;;;;5074135;28;20040;-74
2023/09/23 12:22:57;;;;;;;0.30;0.30;;;17.60;99.90;;;;;;5074110;28;20050;-74
2023/09/23 12:25:23;;;;;;;0.32;0.32;;;17.70;99.90;;;;;;5074042;28;20045;-74
2023/09/23 12:27:48;;;;;;;0.30;0.30;;;17.80;99.90;;;;;;5073572;28;20128;-74
2023/09/23 12:30:17;;;;;;;0.30;0.30;;;17.90;99.90;;;;;;5073760;28;20040;-74
2023/09/23 12:32:43;;;;;;;0.30;0.30;;;18.00;99.90;;;;;;5073840;28;20044;-74
2023/09/23 12:35:09;;;;;;;0.47;0.47;;;18.00;99.90;;;;;;5073897;28;20098;-74
2023/09/23 12:37:35;;;;;;;0.40;0.40;;;18.10;99.90;;;;;;5074340;28;20041;-74
2023/09/23 12:40:01;;;;;;;0.30;0.30;;;18.00;99.90;;;;;;5073777;28;20090;-74
2023/09/23 12:42:26;;;;;;;0.30;0.30;;;18.00;99.90;;;;;;5073575;28;20043;-74
2023/09/23 12:44:52;;;;;;;0.53;0.40;;;17.90;99.90;;;;;;5073811;28;20047;-74
2023/09/23 12:47:17;;;;;;;0.30;0.30;;;17.90;99.90;;;;;;5073670;28;20048;-74
2023/09/23 12:49:43;;;;;;;0.30;0.30;;;17.80;99.90;;;;;;5073997;28;20036;-74
2023/09/23 12:52:10;;;;;;;0.80;0.80;;;17.80;99.90;;;;;;5073571;28;20048;-75